Time;durP1;ratioP1;P1;durP2;ratioP2;P2;SDS_P1;SDS_P2;PMS_P1;PMS_P2;Temp;Humidity;BMP_temperature;BMP_pressure;BME280_temperature;BME280_humidity;BME280_pressure;Samples;Min_cycle;Max_cycle;Signal;HPM_P1;HPM_P2
2021/03/05 00:00:22;;;;;;;7.05;3.83;;;17.80;52.90;;;;;;5037748;28;20029;-64
2021/03/05 00:02:47;;;;;;;7.00;4.95;;;17.80;53.00;;;;;;5035670;28;20045;-64
2021/03/05 00:05:13;;;;;;;6.13;3.70;;;17.80;53.10;;;;;;5033085;28;20059;-64
2021/03/05 00:07:38;;;;;;;5.47;3.75;;;17.80;53.20;;;;;;5041335;28;20037;-60
2021/03/05 00:10:12;;;;;;;7.95;4.13;;;17.70;53.10;;;;;;5029305;28;20052;-62
2021/03/05 00:12:38;;;;;;;8.23;4.03;;;17.70;53.10;;;;;;5015691;28;20083;-64
2021/03/05 00:15:05;;;;;;;5.85;3.88;;;17.70;53.10;;;;;;5034025;28;20038;-64
2021/03/05 00:17:30;;;;;;;7.05;4.25;;;17.70;53.00;;;;;;5035910;28;20124;-62
2021/03/05 00:19:56;;;;;;;5.78;3.78;;;17.80;53.10;;;;;;5034949;28;20039;-64
2021/03/05 00:22:21;;;;;;;4.10;3.28;;;17.80;53.00;;;;;;5032673;28;20635;-64
2021/03/05 00:24:47;;;;;;;9.10;3.80;;;17.70;53.00;;;;;;5039167;28;20091;-64
2021/03/05 00:27:12;;;;;;;5.95;4.00;;;17.70;53.00;;;;;;5028852;28;20032;-64
2021/03/05 00:29:38;;;;;;;5.82;3.70;;;17.70;53.00;;;;;;5043111;28;20029;-63
2021/03/05 00:32:04;;;;;;;6.22;3.50;;;17.70;53.00;;;;;;5035181;28;20029;-64
2021/03/05 00:34:29;;;;;;;6.70;3.97;;;17.70;52.90;;;;;;5039744;28;20112;-58
2021/03/05 00:36:55;;;;;;;6.90;4.45;;;17.70;52.80;;;;;;5034566;28;20037;-64
2021/03/05 00:39:20;;;;;;;5.13;3.55;;;17.80;52.80;;;;;;5036829;28;20029;-64
2021/03/05 00:41:46;;;;;;;4.70;3.00;;;17.80;52.70;;;;;;5036626;28;20040;-63
2021/03/05 00:44:11;;;;;;;4.57;3.45;;;17.80;52.60;;;;;;5036589;28;20067;-60
2021/03/05 00:46:37;;;;;;;5.55;3.38;;;17.80;52.60;;;;;;5032498;28;20063;-61
2021/03/05 00:49:02;;;;;;;10.02;3.88;;;17.80;52.50;;;;;;5027370;28;20046;-64
2021/03/05 00:51:27;;;;;;;4.63;3.20;;;17.80;52.30;;;;;;5036208;28;20029;-64
2021/03/05 00:53:53;;;;;;;4.97;3.47;;;17.80;52.20;;;;;;5028576;28;20675;-65
2021/03/05 00:56:19;;;;;;;6.35;3.50;;;17.90;52.20;;;;;;5016549;28;511909;-65
2021/03/05 00:58:44;;;;;;;5.43;3.97;;;17.90;52.00;;;;;;5036927;28;20033;-60
2021/03/05 01:01:10;;;;;;;6.07;3.25;;;17.90;51.90;;;;;;5034639;28;20029;-59
2021/03/05 01:03:35;;;;;;;7.10;4.03;;;17.90;51.90;;;;;;5016384;28;20110;-64
2021/03/05 01:06:01;;;;;;;4.57;3.88;;;17.90;51.80;;;;;;5034461;28;20044;-64
2021/03/05 01:08:26;;;;;;;4.32;2.88;;;17.90;51.70;;;;;;5034097;28;20041;-64
2021/03/05 01:10:52;;;;;;;4.40;2.80;;;17.90;51.60;;;;;;5042942;28;20470;-58
2021/03/05 01:13:18;;;;;;;3.22;2.50;;;18.00;51.60;;;;;;5031011;28;20041;-62
2021/03/05 01:15:43;;;;;;;4.43;3.13;;;17.90;51.50;;;;;;5037294;28;20043;-63
2021/03/05 01:18:09;;;;;;;4.43;3.38;;;17.90;51.50;;;;;;5036518;28;20033;-64
2021/03/05 01:20:34;;;;;;;5.15;3.00;;;17.90;51.40;;;;;;5036757;28;20033;-63
2021/03/05 01:23:00;;;;;;;3.63;2.92;;;17.90;51.40;;;;;;5034393;28;20458;-65
2021/03/05 01:25:28;;;;;;;8.00;3.72;;;18.00;51.30;;;;;;5034351;28;20032;-64
2021/03/05 01:27:54;;;;;;;4.15;2.58;;;18.00;51.20;;;;;;5032512;28;20258;-65
2021/03/05 01:30:20;;;;;;;3.80;3.00;;;17.90;51.10;;;;;;5038005;28;20029;-64
2021/03/05 01:32:45;;;;;;;3.97;2.95;;;18.00;51.10;;;;;;5035071;28;20466;-63
2021/03/05 01:35:13;;;;;;;4.75;2.53;;;18.00;51.00;;;;;;5033791;28;20030;-64
2021/03/05 01:37:39;;;;;;;4.78;3.38;;;18.00;51.00;;;;;;5015281;28;20057;-65
2021/03/05 01:40:05;;;;;;;3.33;2.72;;;18.00;51.00;;;;;;5035004;28;20496;-65
2021/03/05 01:42:31;;;;;;;4.03;2.60;;;18.00;51.00;;;;;;5036413;28;20036;-64
2021/03/05 01:44:56;;;;;;;4.80;2.90;;;18.00;50.90;;;;;;5035707;28;20038;-63
2021/03/05 01:47:22;;;;;;;3.65;2.70;;;18.00;50.90;;;;;;5031760;28;20419;-65
2021/03/05 01:49:47;;;;;;;3.28;2.35;;;18.00;50.90;;;;;;5032499;28;20516;-58
2021/03/05 01:52:13;;;;;;;4.03;2.90;;;18.00;50.80;;;;;;5034892;28;20070;-64
2021/03/05 01:54:38;;;;;;;5.10;2.40;;;18.00;50.80;;;;;;5037354;28;20025;-65
2021/03/05 01:57:04;;;;;;;2.92;2.60;;;18.00;50.80;;;;;;5035758;28;20040;-64
2021/03/05 01:59:32;;;;;;;4.10;2.60;;;18.00;50.70;;;;;;5001342;28;20555;-65
2021/03/05 02:02:07;;;;;;;3.72;2.25;;;18.00;50.70;;;;;;5034316;28;20033;-64
2021/03/05 02:04:34;;;;;;;2.90;2.35;;;17.90;50.70;;;;;;5032410;28;20033;-61
2021/03/05 02:07:07;;;;;;;3.78;2.88;;;18.00;50.70;;;;;;5031348;28;20064;-64
2021/03/05 02:09:33;;;;;;;3.08;2.38;;;18.00;50.60;;;;;;5032616;28;20529;-65
2021/03/05 02:11:59;;;;;;;2.80;2.38;;;18.00;50.60;;;;;;5034669;28;20036;-65
2021/03/05 02:14:25;;;;;;;3.63;2.83;;;17.90;50.70;;;;;;5032330;28;20081;-64
2021/03/05 02:17:09;;;;;;;3.92;2.65;;;17.90;50.70;;;;;;5032017;28;20033;-65
2021/03/05 02:19:56;;;;;;;3.65;2.40;;;17.90;50.70;;;;;;5017750;28;20384;-62
2021/03/05 02:22:46;;;;;;;2.70;2.08;;;17.90;50.70;;;;;;5000151;28;20038;-64
2021/03/05 02:25:38;;;;;;;3.33;2.60;;;17.90;50.60;;;;;;5017165;28;20061;-60
2021/03/05 02:28:12;;;;;;;2.42;2.15;;;18.00;50.60;;;;;;5023889;28;20033;-59
2021/03/05 02:30:58;;;;;;;4.50;2.53;;;18.00;50.60;;;;;;5018590;28;20033;-64
2021/03/05 02:33:44;;;;;;;3.35;2.13;;;17.90;50.50;;;;;;5030960;28;20034;-62
2021/03/05 02:36:10;;;;;;;2.63;1.90;;;17.90;50.60;;;;;;5041329;28;20037;-64
2021/03/05 02:38:36;;;;;;;6.32;2.40;;;17.90;50.40;;;;;;5013390;28;20037;-64
2021/03/05 02:41:02;;;;;;;2.92;2.40;;;18.00;50.40;;;;;;4995815;28;20033;-64
2021/03/05 02:43:29;;;;;;;2.50;2.08;;;18.00;50.40;;;;;;4993239;28;20045;-64
2021/03/05 02:46:02;;;;;;;3.47;1.73;;;17.90;50.30;;;;;;4997677;28;20096;-65
2021/03/05 02:48:36;;;;;;;2.42;2.00;;;18.00;50.20;;;;;;4984315;28;20117;-62
2021/03/05 02:51:02;;;;;;;3.65;1.95;;;18.00;50.20;;;;;;5015506;28;20812;-60
2021/03/05 02:53:27;;;;;;;2.35;1.88;;;18.00;50.20;;;;;;4997993;28;20619;-57
2021/03/05 02:55:54;;;;;;;3.22;2.10;;;18.00;50.20;;;;;;4997222;28;20104;-63
2021/03/05 02:58:20;;;;;;;3.72;1.90;;;18.00;50.20;;;;;;4994482;28;20034;-64
2021/03/05 03:00:46;;;;;;;2.67;2.05;;;18.00;50.00;;;;;;4976878;28;20089;-60
2021/03/05 03:03:14;;;;;;;2.30;2.00;;;18.00;49.90;;;;;;4996480;28;20038;-64
2021/03/05 03:05:40;;;;;;;3.20;2.30;;;18.00;49.90;;;;;;4981874;28;20025;-63
2021/03/05 03:08:06;;;;;;;2.65;1.85;;;18.00;49.90;;;;;;4979096;28;20066;-61
2021/03/05 03:10:31;;;;;;;2.90;2.08;;;18.00;49.90;;;;;;4994625;28;20474;-64
2021/03/05 03:12:58;;;;;;;2.17;1.70;;;18.00;49.90;;;;;;5001151;28;20076;-64
2021/03/05 03:15:26;;;;;;;1.85;1.67;;;18.00;49.90;;;;;;4994373;28;20022;-64
2021/03/05 03:17:52;;;;;;;2.05;1.80;;;18.00;49.90;;;;;;5011816;28;20126;-64
2021/03/05 03:20:20;;;;;;;3.03;1.58;;;18.00;49.90;;;;;;4981468;28;20116;-64
2021/03/05 03:22:46;;;;;;;2.33;1.67;;;18.00;49.80;;;;;;4981565;28;20093;-62
2021/03/05 03:25:12;;;;;;;2.10;1.77;;;18.00;49.80;;;;;;5001953;28;20129;-62
2021/03/05 03:27:38;;;;;;;2.33;1.70;;;18.00;49.80;;;;;;5022412;28;20033;-65
2021/03/05 03:30:05;;;;;;;1.95;1.55;;;18.00;49.80;;;;;;4989724;28;20747;-65
2021/03/05 03:32:31;;;;;;;2.13;1.73;;;18.00;49.80;;;;;;5012647;28;20033;-58
2021/03/05 03:34:56;;;;;;;1.77;1.50;;;18.00;49.80;;;;;;4996693;28;20026;-65
2021/03/05 03:37:22;;;;;;;2.30;1.92;;;18.00;49.70;;;;;;4976521;28;20695;-64
2021/03/05 03:39:48;;;;;;;2.25;1.52;;;18.00;50.40;;;;;;4980122;28;20061;-61
2021/03/05 03:42:13;;;;;;;2.20;1.73;;;17.90;49.60;;;;;;4986563;28;20088;-59
2021/03/05 03:44:39;;;;;;;1.75;1.45;;;18.00;49.70;;;;;;4992018;28;20049;-64
2021/03/05 03:47:04;;;;;;;1.70;1.58;;;18.00;49.50;;;;;;5014138;28;20351;-63
2021/03/05 03:49:36;;;;;;;2.00;1.33;;;18.00;49.50;;;;;;5013091;28;20045;-64
2021/03/05 03:52:06;;;;;;;2.55;1.50;;;18.00;49.60;;;;;;5015012;28;20033;-65
2021/03/05 03:54:32;;;;;;;2.45;1.20;;;18.00;49.50;;;;;;4992557;28;20041;-61
2021/03/05 03:57:00;;;;;;;2.17;1.73;;;18.00;49.60;;;;;;4977287;28;20034;-64
2021/03/05 03:59:25;;;;;;;3.25;1.60;;;17.90;49.50;;;;;;5011214;28;20053;-64
2021/03/05 04:01:51;;;;;;;1.45;1.20;;;18.00;49.40;;;;;;5011990;28;20405;-61
2021/03/05 04:04:17;;;;;;;1.60;1.20;;;18.00;49.40;;;;;;5009028;28;20041;-64
2021/03/05 04:06:45;;;;;;;2.67;1.40;;;18.00;49.40;;;;;;4982819;28;20034;-65
2021/03/05 04:09:11;;;;;;;1.20;1.10;;;18.00;49.30;;;;;;4995942;28;20037;-65
2021/03/05 04:11:37;;;;;;;2.50;1.45;;;18.00;49.40;;;;;;5013977;28;20042;-64
2021/03/05 04:14:03;;;;;;;2.50;1.10;;;18.00;49.40;;;;;;5011686;28;20037;-64
2021/03/05 04:16:28;;;;;;;1.67;1.40;;;18.00;49.30;;;;;;5010533;28;20034;-64
2021/03/05 04:18:54;;;;;;;1.77;1.15;;;18.00;49.20;;;;;;5019270;28;20049;-64
2021/03/05 04:21:20;;;;;;;1.60;1.30;;;18.00;49.20;;;;;;5012140;28;20040;-64
2021/03/05 04:23:46;;;;;;;2.10;1.50;;;18.00;49.20;;;;;;5012032;28;20080;-63
2021/03/05 04:26:11;;;;;;;2.22;1.40;;;18.00;49.20;;;;;;5017288;28;20515;-64
2021/03/05 04:28:37;;;;;;;1.73;1.45;;;18.00;49.20;;;;;;5014217;28;20053;-63
2021/03/05 04:31:03;;;;;;;1.52;1.42;;;18.00;49.30;;;;;;5020835;28;20041;-64
2021/03/05 04:33:28;;;;;;;1.13;1.00;;;18.00;49.30;;;;;;5016351;28;20026;-58
2021/03/05 04:35:54;;;;;;;2.63;1.40;;;18.00;49.20;;;;;;5017551;28;20168;-63
2021/03/05 04:38:19;;;;;;;1.70;1.60;;;18.00;49.10;;;;;;5014824;28;20035;-63
2021/03/05 04:40:45;;;;;;;1.77;1.20;;;17.90;49.10;;;;;;5014156;28;20042;-54
2021/03/05 04:43:10;;;;;;;2.33;1.13;;;18.00;49.10;;;;;;5015214;28;20097;-56
2021/03/05 04:45:36;;;;;;;1.42;1.33;;;18.00;49.10;;;;;;5015487;28;20508;-63
2021/03/05 04:48:02;;;;;;;1.30;1.20;;;18.00;49.10;;;;;;5018948;28;20305;-64
2021/03/05 04:50:27;;;;;;;2.50;1.30;;;18.00;49.00;;;;;;5012287;28;20022;-63
2021/03/05 04:52:53;;;;;;;1.58;1.48;;;18.00;49.00;;;;;;5014992;28;20111;-59
2021/03/05 04:55:18;;;;;;;1.88;1.20;;;18.00;49.00;;;;;;5017979;28;20088;-65
2021/03/05 04:57:44;;;;;;;1.42;1.13;;;18.00;49.00;;;;;;5016017;28;20064;-62
2021/03/05 05:00:10;;;;;;;1.45;1.17;;;17.90;49.00;;;;;;5017920;28;20381;-62
2021/03/05 05:02:35;;;;;;;1.83;1.58;;;17.90;49.00;;;;;;5016020;28;20036;-63
2021/03/05 05:05:01;;;;;;;2.28;1.35;;;18.00;49.10;;;;;;5009869;28;20046;-62
2021/03/05 05:07:26;;;;;;;3.30;1.40;;;18.00;49.00;;;;;;5016266;28;20036;-64
2021/03/05 05:09:52;;;;;;;3.80;1.27;;;17.90;48.90;;;;;;5017159;28;20037;-61
2021/03/05 05:12:18;;;;;;;3.53;1.45;;;17.90;49.00;;;;;;5013114;28;20045;-60
2021/03/05 05:14:44;;;;;;;2.28;1.45;;;17.90;49.30;;;;;;5014862;28;20683;-62
2021/03/05 05:17:09;;;;;;;1.70;1.23;;;17.90;49.30;;;;;;5014853;28;20049;-64
2021/03/05 05:19:35;;;;;;;7.80;1.90;;;17.90;49.30;;;;;;5017672;28;20036;-62
2021/03/05 05:22:00;;;;;;;3.88;1.95;;;17.90;49.20;;;;;;5022712;28;20037;-64
2021/03/05 05:24:26;;;;;;;5.70;1.40;;;17.90;49.20;;;;;;5045008;28;20416;-59
2021/03/05 05:26:51;;;;;;;5.65;2.20;;;17.90;49.20;;;;;;5045296;28;20036;-56
2021/03/05 05:29:17;;;;;;;8.40;1.88;;;17.90;49.20;;;;;;5037089;28;20032;-63
2021/03/05 05:31:42;;;;;;;5.05;1.75;;;17.90;49.20;;;;;;5030773;28;20053;-64
2021/03/05 05:34:08;;;;;;;5.40;1.77;;;17.90;49.20;;;;;;5013822;28;20046;-64
2021/03/05 05:36:33;;;;;;;8.02;2.30;;;17.90;49.20;;;;;;5016881;28;20022;-62
2021/03/05 05:38:59;;;;;;;7.03;2.85;;;17.90;49.10;;;;;;5009298;28;20054;-63
2021/03/05 05:41:24;;;;;;;22.73;10.75;;;17.80;49.60;;;;;;5018161;28;20033;-63
2021/03/05 05:43:50;;;;;;;39.35;19.75;;;17.90;50.00;;;;;;5021696;28;20124;-64
2021/03/05 05:46:16;;;;;;;55.03;21.08;;;17.90;50.50;;;;;;5023834;28;20540;-62
2021/03/05 05:48:45;;;;;;;40.42;19.92;;;17.90;50.90;;;;;;5023306;28;20030;-62
2021/03/05 05:51:17;;;;;;;40.38;21.65;;;17.90;50.90;;;;;;5006771;28;20543;-57
2021/03/05 05:53:49;;;;;;;40.78;20.38;;;17.90;51.00;;;;;;5016961;28;20034;-61
2021/03/05 05:56:16;;;;;;;38.85;20.42;;;17.90;51.20;;;;;;5042764;28;20040;-59
2021/03/05 05:58:42;;;;;;;33.95;16.75;;;17.90;51.10;;;;;;5042633;28;20167;-60
2021/03/05 06:01:07;;;;;;;33.10;15.75;;;17.90;50.90;;;;;;5062618;28;20539;-59
2021/03/05 06:03:33;;;;;;;32.42;15.20;;;17.80;50.60;;;;;;5064472;28;20040;-60
2021/03/05 06:05:58;;;;;;;32.45;15.15;;;17.80;50.50;;;;;;5047128;28;20024;-62
2021/03/05 06:08:24;;;;;;;33.28;14.68;;;17.80;50.40;;;;;;5046488;28;20056;-57
2021/03/05 06:10:52;;;;;;;26.55;13.25;;;17.80;50.40;;;;;;5066156;28;20604;-58
2021/03/05 06:13:17;;;;;;;27.02;13.77;;;17.80;50.40;;;;;;5047871;28;20040;-61
2021/03/05 06:15:43;;;;;;;24.17;13.18;;;17.80;50.40;;;;;;5065844;28;20032;-63
2021/03/05 06:18:27;;;;;;;30.52;13.32;;;17.80;50.40;;;;;;5065035;28;20029;-58
2021/03/05 06:20:53;;;;;;;25.52;13.13;;;17.80;50.40;;;;;;5049524;28;20044;-63
2021/03/05 06:23:18;;;;;;;24.08;13.10;;;17.80;50.40;;;;;;5065214;28;20037;-61
2021/03/05 06:25:44;;;;;;;27.50;12.23;;;17.80;50.50;;;;;;5065478;28;20025;-63
2021/03/05 06:28:16;;;;;;;23.77;12.05;;;17.70;50.40;;;;;;5064225;28;20027;-61
2021/03/05 06:30:42;;;;;;;19.10;11.95;;;17.80;50.50;;;;;;5065573;28;20391;-62
2021/03/05 06:33:27;;;;;;;18.60;10.82;;;17.80;50.60;;;;;;5047498;28;20032;-63
2021/03/05 06:35:53;;;;;;;20.60;10.88;;;17.70;50.70;;;;;;5066127;28;20029;-63
2021/03/05 06:38:41;;;;;;;21.33;10.85;;;17.60;50.90;;;;;;5066261;28;20046;-63
2021/03/05 06:41:22;;;;;;;17.52;10.80;;;17.60;51.00;;;;;;5067004;28;20032;-56
2021/03/05 06:43:51;;;;;;;14.38;9.55;;;17.60;51.10;;;;;;5048132;28;20053;-63
2021/03/05 06:46:30;;;;;;;17.65;9.82;;;17.50;51.20;;;;;;5066249;28;20025;-62
2021/03/05 06:48:55;;;;;;;18.67;10.10;;;17.50;51.30;;;;;;5073640;28;20032;-65
2021/03/05 06:51:21;;;;;;;17.80;10.20;;;17.50;51.30;;;;;;5067260;28;20032;-66
2021/03/05 06:53:47;;;;;;;14.82;8.82;;;17.50;51.30;;;;;;5064832;28;20028;-64
2021/03/05 06:56:28;;;;;;;14.65;9.15;;;17.50;51.30;;;;;;5064879;28;20040;-63
2021/03/05 06:59:00;;;;;;;15.45;8.23;;;17.50;51.20;;;;;;5064595;28;20033;-63
2021/03/05 07:01:25;;;;;;;11.45;7.32;;;17.60;51.10;;;;;;5065389;28;20043;-61
2021/03/05 07:04:29;;;;;;;15.35;7.88;;;17.60;50.90;;;;;;5064895;28;20507;-63
2021/03/05 07:06:56;;;;;;;12.35;8.48;;;17.70;50.70;;;;;;5000999;28;20527;-63
2021/03/05 07:09:22;;;;;;;12.60;7.47;;;17.70;50.50;;;;;;5053029;28;20048;-65
2021/03/05 07:11:49;;;;;;;14.43;7.80;;;17.80;50.30;;;;;;5064650;28;20525;-63
2021/03/05 07:14:14;;;;;;;12.10;7.15;;;18.00;50.00;;;;;;5064207;28;20032;-64
2021/03/05 07:16:48;;;;;;;10.20;6.60;;;18.00;49.90;;;;;;5064794;28;20533;-65
2021/03/05 07:19:18;;;;;;;17.95;6.97;;;18.10;50.00;;;;;;5064108;28;20034;-62
2021/03/05 07:21:48;;;;;;;11.18;6.75;;;18.10;49.80;;;;;;5064686;28;20491;-65
2021/03/05 07:24:24;;;;;;;13.88;7.38;;;18.10;49.70;;;;;;5064750;28;20044;-62
2021/03/05 07:26:52;;;;;;;10.98;5.13;;;18.20;49.70;;;;;;5064824;28;20110;-62
2021/03/05 07:29:20;;;;;;;8.85;5.60;;;18.20;49.70;;;;;;5064207;28;20115;-64
2021/03/05 07:31:45;;;;;;;8.35;5.38;;;18.20;49.60;;;;;;5063557;28;20559;-64
2021/03/05 07:34:16;;;;;;;12.57;5.90;;;18.20;49.50;;;;;;5062846;28;20032;-64
2021/03/05 07:36:46;;;;;;;10.95;6.20;;;18.30;49.60;;;;;;5044435;28;20040;-64
2021/03/05 07:39:11;;;;;;;13.70;5.65;;;18.30;49.60;;;;;;5045235;28;20033;-64
2021/03/05 07:41:37;;;;;;;7.70;5.25;;;18.30;49.60;;;;;;5044890;28;20024;-64
2021/03/05 07:44:02;;;;;;;11.38;5.50;;;18.20;49.50;;;;;;5044582;28;20495;-63
2021/03/05 07:46:28;;;;;;;11.25;5.78;;;18.20;49.50;;;;;;5063658;28;20040;-64
2021/03/05 07:48:54;;;;;;;8.05;4.80;;;18.20;49.50;;;;;;5045931;28;20028;-56
2021/03/05 07:51:19;;;;;;;12.48;6.00;;;18.20;49.50;;;;;;5046039;28;20027;-62
2021/03/05 07:53:52;;;;;;;10.95;5.40;;;18.20;49.50;;;;;;5046026;28;20044;-60
2021/03/05 07:56:42;;;;;;;16.08;4.80;;;18.20;49.50;;;;;;5063926;28;20064;-63
2021/03/05 07:59:08;;;;;;;9.98;4.85;;;18.20;49.50;;;;;;5066689;28;20058;-64
2021/03/05 08:01:51;;;;;;;10.25;4.88;;;18.20;49.40;;;;;;5032450;28;20041;-59
2021/03/05 08:04:17;;;;;;;11.13;5.55;;;18.10;49.30;;;;;;5028146;28;20512;-63
2021/03/05 08:06:42;;;;;;;11.20;4.82;;;18.10;49.30;;;;;;5026715;28;20040;-63
2021/03/05 08:09:13;;;;;;;12.32;4.78;;;18.10;49.20;;;;;;5026045;28;20316;-65
2021/03/05 08:11:39;;;;;;;14.18;4.68;;;18.10;49.20;;;;;;5028487;28;20113;-64
2021/03/05 08:14:25;;;;;;;12.25;5.05;;;18.10;49.20;;;;;;5027398;28;20541;-64
2021/03/05 08:16:51;;;;;;;8.98;4.50;;;18.10;49.20;;;;;;5028139;28;20029;-63
2021/03/05 08:19:16;;;;;;;7.97;4.93;;;18.10;49.10;;;;;;5026862;28;20030;-63
2021/03/05 08:21:55;;;;;;;7.22;3.90;;;18.10;49.10;;;;;;5022878;28;20087;-64
2021/03/05 08:24:39;;;;;;;16.20;5.10;;;18.10;49.10;;;;;;5029544;28;20522;-64
2021/03/05 08:27:40;;;;;;;8.48;3.85;;;18.10;49.00;;;;;;5031712;28;20445;-62
2021/03/05 08:30:12;;;;;;;6.45;4.38;;;18.00;48.90;;;;;;5000767;28;20553;-64
2021/03/05 08:32:44;;;;;;;10.20;4.45;;;18.00;49.00;;;;;;5026775;28;20526;-64
2021/03/05 08:35:11;;;;;;;7.15;4.40;;;18.00;49.00;;;;;;5025792;28;20026;-61
2021/03/05 08:37:58;;;;;;;6.72;3.60;;;18.00;48.90;;;;;;5026002;28;20129;-64
2021/03/05 08:40:28;;;;;;;5.05;3.70;;;18.00;48.80;;;;;;5026471;28;20032;-64
2021/03/05 08:42:56;;;;;;;7.75;4.40;;;18.00;48.90;;;;;;5026573;28;20125;-63
2021/03/05 08:45:29;;;;;;;8.75;3.78;;;18.00;48.90;;;;;;5026538;28;20124;-64
2021/03/05 08:47:56;;;;;;;6.57;3.80;;;18.00;48.70;;;;;;5026068;28;20049;-64
2021/03/05 08:50:32;;;;;;;6.50;3.45;;;18.00;48.80;;;;;;5024920;28;20052;-63
2021/03/05 08:53:05;;;;;;;6.90;3.47;;;18.00;48.80;;;;;;5024738;28;20029;-63
2021/03/05 08:55:34;;;;;;;7.75;4.05;;;18.00;48.80;;;;;;5026619;28;20038;-63
2021/03/05 08:58:00;;;;;;;12.35;4.30;;;18.00;48.80;;;;;;5024845;28;20041;-64
2021/03/05 09:00:28;;;;;;;6.18;3.67;;;18.00;48.80;;;;;;5026061;28;20036;-61
2021/03/05 09:03:17;;;;;;;5.65;3.33;;;18.00;48.80;;;;;;5025813;28;20088;-63
2021/03/05 09:05:47;;;;;;;5.97;3.78;;;18.00;48.80;;;;;;5026434;28;20087;-61
2021/03/05 09:08:16;;;;;;;7.32;3.42;;;18.00;48.80;;;;;;5025740;28;20623;-61
2021/03/05 09:10:42;;;;;;;5.63;3.05;;;18.00;48.80;;;;;;5026629;28;20560;-62
2021/03/05 09:13:08;;;;;;;5.15;3.00;;;18.00;48.80;;;;;;5026474;28;20027;-65
2021/03/05 09:15:41;;;;;;;4.90;3.40;;;18.00;48.80;;;;;;5025020;28;20034;-62
2021/03/05 09:18:07;;;;;;;4.50;2.80;;;18.00;48.80;;;;;;5034499;28;20630;-59
2021/03/05 09:20:47;;;;;;;5.18;3.28;;;17.90;48.80;;;;;;5028527;28;20032;-61
2021/03/05 09:23:36;;;;;;;5.47;2.95;;;18.00;48.70;;;;;;5028258;28;20079;-64
2021/03/05 09:26:05;;;;;;;5.78;3.10;;;18.00;48.70;;;;;;5046383;28;20025;-64
2021/03/05 09:28:50;;;;;;;6.45;2.83;;;17.90;48.60;;;;;;5045789;28;20039;-65
2021/03/05 09:31:16;;;;;;;5.38;2.90;;;18.00;48.60;;;;;;5028016;28;20048;-63
2021/03/05 09:33:45;;;;;;;5.32;2.78;;;18.00;48.60;;;;;;5028271;28;20036;-65
2021/03/05 09:36:21;;;;;;;4.68;2.72;;;17.90;48.50;;;;;;5046887;28;20025;-64
2021/03/05 09:38:53;;;;;;;5.25;3.17;;;18.00;48.60;;;;;;5045500;28;20587;-64
2021/03/05 09:41:45;;;;;;;4.90;2.33;;;18.00;48.60;;;;;;5046464;28;20032;-64
2021/03/05 09:44:11;;;;;;;3.30;2.63;;;17.90;48.60;;;;;;5036952;28;20037;-63
2021/03/05 09:46:37;;;;;;;4.78;2.35;;;17.90;48.60;;;;;;5025914;28;20038;-64
2021/03/05 09:49:22;;;;;;;2.75;2.45;;;17.90;48.70;;;;;;5026084;28;20079;-64
2021/03/05 09:51:48;;;;;;;5.78;2.75;;;17.90;48.80;;;;;;5025728;28;20136;-62
2021/03/05 09:54:13;;;;;;;4.45;2.42;;;17.90;48.80;;;;;;5006958;28;20654;-59
2021/03/05 09:56:44;;;;;;;4.22;2.42;;;17.90;48.80;;;;;;5026046;28;20129;-63
2021/03/05 09:59:09;;;;;;;3.33;2.08;;;17.90;48.80;;;;;;5027886;28;20112;-61
2021/03/05 10:01:38;;;;;;;2.75;2.10;;;17.90;48.80;;;;;;5045667;28;20032;-61
2021/03/05 10:04:04;;;;;;;2.92;2.28;;;17.90;48.80;;;;;;5045366;28;20060;-59
2021/03/05 10:06:30;;;;;;;3.22;2.10;;;17.90;48.80;;;;;;5044912;28;20491;-60
2021/03/05 10:09:06;;;;;;;6.53;2.53;;;17.90;48.90;;;;;;5045079;28;20040;-63
2021/03/05 10:11:38;;;;;;;3.10;2.20;;;17.90;48.80;;;;;;5045677;28;20136;-58
2021/03/05 10:14:05;;;;;;;3.20;1.83;;;17.90;48.80;;;;;;5044999;28;20043;-61
2021/03/05 10:16:40;;;;;;;3.50;2.50;;;17.90;48.70;;;;;;5044883;28;20037;-61
2021/03/05 10:19:07;;;;;;;4.32;2.08;;;17.90;48.80;;;;;;5027364;28;20029;-63
2021/03/05 10:21:34;;;;;;;4.25;2.20;;;17.90;48.90;;;;;;5044844;28;20033;-62
2021/03/05 10:24:07;;;;;;;3.85;2.42;;;17.90;49.10;;;;;;5044682;28;20044;-64
2021/03/05 10:26:33;;;;;;;6.95;2.22;;;17.90;49.20;;;;;;5045336;28;20040;-62
2021/03/05 10:29:00;;;;;;;4.13;2.67;;;17.90;49.90;;;;;;5045021;28;20033;-64
2021/03/05 10:32:01;;;;;;;7.93;2.58;;;17.90;49.30;;;;;;5027049;28;20502;-64
2021/03/05 10:34:31;;;;;;;6.10;2.50;;;17.90;49.20;;;;;;4927847;28;21396;-64
2021/03/05 10:37:00;;;;;;;5.60;2.13;;;17.90;48.90;;;;;;5010614;28;20038;-64
2021/03/05 10:39:27;;;;;;;6.25;2.60;;;17.90;48.60;;;;;;5008232;28;20104;-63
2021/03/05 10:42:00;;;;;;;3.60;1.90;;;17.90;48.10;;;;;;5007322;28;20029;-60
2021/03/05 10:44:27;;;;;;;7.25;1.98;;;17.90;47.90;;;;;;5024561;28;20033;-63
2021/03/05 10:46:55;;;;;;;3.10;1.63;;;17.90;47.30;;;;;;5025040;28;20116;-64
2021/03/05 10:49:20;;;;;;;5.60;2.22;;;17.90;47.10;;;;;;5024408;28;20021;-64
2021/03/05 10:51:46;;;;;;;7.00;2.35;;;17.90;46.60;;;;;;5025872;28;20034;-64
2021/03/05 10:54:11;;;;;;;7.97;1.98;;;17.90;46.20;;;;;;5025369;28;20041;-64
2021/03/05 10:56:37;;;;;;;6.38;1.65;;;17.90;45.60;;;;;;5025154;28;20048;-64
2021/03/05 10:59:02;;;;;;;8.25;1.73;;;17.90;45.20;;;;;;5025278;28;20117;-65
2021/03/05 11:01:28;;;;;;;9.55;2.10;;;17.90;44.60;;;;;;5008707;28;20041;-58
2021/03/05 11:03:53;;;;;;;6.97;1.77;;;17.90;44.20;;;;;;5028479;28;20045;-63
2021/03/05 11:06:19;;;;;;;6.53;2.15;;;17.90;44.10;;;;;;5029835;28;20041;-65
2021/03/05 11:08:45;;;;;;;16.38;1.90;;;17.90;43.70;;;;;;5025314;28;20041;-65
2021/03/05 11:11:11;;;;;;;10.43;1.50;;;17.90;43.70;;;;;;5025064;28;20451;-63
2021/03/05 11:13:36;;;;;;;6.10;1.92;;;17.80;43.90;;;;;;5024483;28;20060;-64
2021/03/05 11:16:02;;;;;;;7.57;1.98;;;17.80;43.90;;;;;;5024985;28;20029;-62
2021/03/05 11:18:27;;;;;;;5.80;2.10;;;17.80;44.10;;;;;;5024312;28;20146;-64
2021/03/05 11:20:53;;;;;;;8.18;2.10;;;17.80;44.90;;;;;;5006778;28;20045;-61
2021/03/05 11:23:18;;;;;;;9.20;2.03;;;17.80;45.00;;;;;;5025184;28;20025;-64
2021/03/05 11:25:44;;;;;;;8.57;2.25;;;17.90;45.10;;;;;;5024671;28;20504;-64
2021/03/05 11:28:09;;;;;;;7.70;1.90;;;17.80;45.00;;;;;;5023719;28;20091;-63
2021/03/05 11:30:35;;;;;;;5.80;1.65;;;17.80;45.40;;;;;;5006761;28;20025;-64
2021/03/05 11:33:01;;;;;;;9.68;2.03;;;17.80;45.70;;;;;;5025373;28;20025;-62
2021/03/05 11:35:26;;;;;;;5.80;1.80;;;17.80;45.90;;;;;;5028587;28;20111;-61
2021/03/05 11:37:52;;;;;;;8.20;2.00;;;17.80;46.10;;;;;;5028668;28;20057;-63
2021/03/05 11:40:18;;;;;;;6.97;2.08;;;17.80;46.30;;;;;;5028766;28;20112;-60
2021/03/05 11:42:43;;;;;;;9.82;2.15;;;17.80;46.30;;;;;;5028080;28;20060;-62
2021/03/05 11:45:09;;;;;;;12.27;2.67;;;17.80;46.40;;;;;;5010667;28;20069;-62
2021/03/05 11:47:35;;;;;;;6.80;1.90;;;17.80;46.50;;;;;;5028573;28;20108;-63
2021/03/05 11:50:01;;;;;;;6.00;1.80;;;17.80;46.50;;;;;;5027713;28;20033;-62
2021/03/05 11:52:27;;;;;;;8.63;2.25;;;17.80;46.60;;;;;;5028202;28;20033;-58
2021/03/05 11:54:52;;;;;;;7.93;2.10;;;17.70;46.50;;;;;;5028070;28;20148;-63
2021/03/05 11:57:18;;;;;;;5.18;2.08;;;17.80;46.60;;;;;;5028019;28;20063;-61
2021/03/05 11:59:43;;;;;;;3.47;1.50;;;17.70;46.60;;;;;;5027753;28;20038;-63
2021/03/05 12:02:09;;;;;;;6.47;1.65;;;17.70;46.60;;;;;;5028234;28;20030;-60
2021/03/05 12:04:35;;;;;;;3.88;1.38;;;17.70;46.70;;;;;;5009338;28;20034;-61
2021/03/05 12:07:00;;;;;;;5.13;1.98;;;17.70;46.70;;;;;;5027803;28;20079;-62
2021/03/05 12:09:26;;;;;;;4.05;1.55;;;17.70;46.70;;;;;;5027129;28;20068;-61
2021/03/05 12:11:51;;;;;;;3.95;1.75;;;17.70;46.70;;;;;;5028426;28;20029;-61
2021/03/05 12:14:16;;;;;;;5.93;2.13;;;17.70;46.70;;;;;;5027554;28;20026;-62
2021/03/05 12:16:42;;;;;;;4.00;1.63;;;17.70;46.80;;;;;;5027027;28;20044;-60
2021/03/05 12:19:08;;;;;;;4.70;1.70;;;17.70;46.70;;;;;;5027351;28;20329;-62
2021/03/05 12:21:33;;;;;;;5.28;1.67;;;17.70;46.60;;;;;;5027724;28;20062;-62
2021/03/05 12:23:59;;;;;;;10.95;1.70;;;17.80;46.60;;;;;;5027058;28;20053;-63
2021/03/05 12:26:25;;;;;;;3.55;1.08;;;17.70;46.40;;;;;;5026620;28;20511;-62
2021/03/05 12:28:50;;;;;;;3.28;1.10;;;17.70;47.00;;;;;;5029348;28;20067;-63
2021/03/05 12:31:16;;;;;;;3.38;1.20;;;17.70;46.40;;;;;;5045096;28;20527;-64
2021/03/05 12:33:43;;;;;;;3.70;1.42;;;17.70;46.40;;;;;;5036603;28;20052;-63
2021/03/05 12:36:09;;;;;;;2.67;1.25;;;17.70;46.40;;;;;;5037321;28;20036;-62
2021/03/05 12:38:34;;;;;;;2.40;1.40;;;17.70;46.40;;;;;;5036594;28;20391;-64
2021/03/05 12:41:00;;;;;;;4.95;1.38;;;17.60;47.10;;;;;;5041395;28;20454;-64
2021/03/05 12:43:25;;;;;;;4.95;1.30;;;17.60;47.50;;;;;;5036109;28;20029;-62
2021/03/05 12:45:51;;;;;;;5.88;1.90;;;17.50;47.70;;;;;;5034464;28;20029;-57
2021/03/05 12:48:17;;;;;;;6.40;1.35;;;17.50;48.00;;;;;;5040775;28;20033;-63